Time;durP1;ratioP1;P1;durP2;ratioP2;P2;SDS_P1;SDS_P2;PMS_P1;PMS_P2;Temp;Humidity;BMP_temperature;BMP_pressure;BME280_temperature;BME280_humidity;BME280_pressure;Samples;Min_cycle;Max_cycle;Signal;HPM_P1;HPM_P2
2023/05/11 00:01:28;;;;;;;3.20;1.73;;;12.10;99.90;;;;;;5051612;28;20448;-71
2023/05/11 00:04:13;;;;;;;2.60;1.47;;;12.00;99.90;;;;;;5050840;28;20472;-73
2023/05/11 00:06:58;;;;;;;2.37;1.43;;;11.90;99.90;;;;;;5048573;28;20449;-71
2023/05/11 00:09:44;;;;;;;4.90;1.80;;;12.00;99.90;;;;;;5046063;28;20420;-72
2023/05/11 00:12:30;;;;;;;6.60;1.60;;;11.90;99.90;;;;;;5049415;28;20444;-71
2023/05/11 00:15:15;;;;;;;4.60;1.67;;;11.90;99.90;;;;;;5051361;28;20506;-71
2023/05/11 00:18:02;;;;;;;3.83;2.10;;;11.80;99.90;;;;;;5045877;28;20984;-74
2023/05/11 00:20:47;;;;;;;10.13;1.60;;;11.70;99.90;;;;;;5051202;28;20461;-71
2023/05/11 00:23:33;;;;;;;2.80;1.90;;;11.70;99.90;;;;;;5046811;28;20441;-71
2023/05/11 00:26:18;;;;;;;4.47;1.87;;;11.70;99.90;;;;;;5045770;28;20446;-71
2023/05/11 00:29:04;;;;;;;2.37;1.17;;;11.90;99.90;;;;;;5044734;28;21233;-72
2023/05/11 00:31:50;;;;;;;2.20;1.40;;;11.90;99.90;;;;;;5051849;28;20474;-71
2023/05/11 00:34:36;;;;;;;7.33;1.93;;;12.00;99.90;;;;;;5039847;28;21216;-72
2023/05/11 00:37:22;;;;;;;4.80;1.67;;;12.00;99.90;;;;;;5050650;28;20415;-71
2023/05/11 00:40:08;;;;;;;3.53;1.47;;;11.90;99.90;;;;;;5048575;28;20546;-71
2023/05/11 00:42:54;;;;;;;2.77;1.83;;;12.00;99.90;;;;;;5051146;28;20453;-71
2023/05/11 00:45:40;;;;;;;7.27;1.80;;;11.90;99.90;;;;;;5045931;28;20440;-71
2023/05/11 00:48:25;;;;;;;2.43;1.30;;;11.80;99.90;;;;;;5045945;28;20420;-71
2023/05/11 00:51:13;;;;;;;5.40;1.60;;;11.80;99.90;;;;;;5043918;28;20438;-72
2023/05/11 00:53:58;;;;;;;9.03;2.10;;;11.70;99.90;;;;;;5050818;28;20446;-71
2023/05/11 00:56:44;;;;;;;2.10;1.50;;;11.70;99.90;;;;;;5052895;28;20509;-75
2023/05/11 00:59:30;;;;;;;3.33;1.87;;;11.80;99.90;;;;;;5046183;28;20454;-71
2023/05/11 01:02:15;;;;;;;10.33;2.53;;;11.70;99.90;;;;;;5049771;28;20427;-76
2023/05/11 01:05:01;;;;;;;4.30;1.97;;;11.70;99.90;;;;;;5046816;28;20589;-71
2023/05/11 01:07:57;;;;;;;4.23;2.17;;;11.60;99.90;;;;;;5045815;28;20423;-71
2023/05/11 01:10:47;;;;;;;2.83;1.70;;;11.60;99.90;;;;;;5038770;28;20997;-72
2023/05/11 01:13:39;;;;;;;10.53;1.83;;;11.60;99.90;;;;;;5049874;28;20444;-71
2023/05/11 01:16:24;;;;;;;6.90;1.87;;;11.50;99.90;;;;;;5053557;28;20450;-72
2023/05/11 01:19:18;;;;;;;4.00;1.97;;;11.70;99.90;;;;;;5047449;28;20429;-73
2023/05/11 01:22:15;;;;;;;4.70;2.00;;;11.80;99.90;;;;;;5044305;28;21031;-72
2023/05/11 01:25:12;;;;;;;2.80;1.67;;;11.80;99.90;;;;;;5044119;28;20467;-72
2023/05/11 01:28:20;;;;;;;2.73;1.33;;;11.80;99.90;;;;;;5043421;28;20999;-73
2023/05/11 01:31:09;;;;;;;6.53;1.90;;;11.70;99.90;;;;;;5042978;28;20810;-71
2023/05/11 01:33:59;;;;;;;8.37;1.53;;;11.70;99.90;;;;;;5049445;28;20449;-72
2023/05/11 01:36:50;;;;;;;6.60;2.33;;;11.70;99.90;;;;;;5043224;28;20512;-74
2023/05/11 01:39:41;;;;;;;2.53;1.57;;;11.80;99.90;;;;;;5050641;28;20430;-71
2023/05/11 01:42:32;;;;;;;8.73;1.70;;;11.80;99.90;;;;;;5048590;28;20598;-71
2023/05/11 01:45:18;;;;;;;2.33;1.70;;;11.80;99.90;;;;;;5045241;28;20969;-71
2023/05/11 01:48:10;;;;;;;3.90;1.23;;;11.70;99.90;;;;;;5044456;28;20528;-71
2023/05/11 01:51:00;;;;;;;3.03;1.60;;;11.70;99.90;;;;;;5053901;28;20448;-71
2023/05/11 01:53:47;;;;;;;8.63;1.90;;;11.70;99.90;;;;;;5053795;28;20466;-72
2023/05/11 01:56:35;;;;;;;3.17;1.57;;;11.70;99.90;;;;;;5039618;28;20423;-71
2023/05/11 01:59:20;;;;;;;2.70;1.60;;;11.70;99.90;;;;;;5045775;28;20423;-71
2023/05/11 02:02:08;;;;;;;2.50;1.70;;;11.70;99.90;;;;;;5044494;28;20492;-73
2023/05/11 02:04:55;;;;;;;2.40;1.50;;;11.60;99.90;;;;;;5048761;28;20446;-71
2023/05/11 02:07:43;;;;;;;4.20;1.80;;;11.60;99.90;;;;;;5043974;28;20511;-71
2023/05/11 02:10:29;;;;;;;2.37;1.20;;;11.50;99.90;;;;;;5043653;28;22331;-72
2023/05/11 02:13:17;;;;;;;2.07;1.33;;;11.50;99.90;;;;;;5044810;28;20562;-71
2023/05/11 02:16:04;;;;;;;8.90;1.97;;;11.40;99.90;;;;;;5038501;28;20452;-72
2023/05/11 02:18:51;;;;;;;5.23;1.90;;;11.50;99.90;;;;;;5047056;28;20439;-71
2023/05/11 02:21:39;;;;;;;3.23;1.77;;;11.50;99.90;;;;;;5049587;28;20968;-74
2023/05/11 02:24:27;;;;;;;2.57;1.70;;;11.50;99.90;;;;;;5049956;28;20450;-71
2023/05/11 02:27:12;;;;;;;2.30;1.70;;;11.60;99.90;;;;;;5048821;28;20479;-71
2023/05/11 02:29:58;;;;;;;5.23;2.20;;;11.50;99.90;;;;;;5047356;28;20667;-72
2023/05/11 02:32:49;;;;;;;10.27;1.73;;;11.60;99.90;;;;;;5045349;28;20502;-71
2023/05/11 02:35:39;;;;;;;5.90;1.77;;;11.50;99.90;;;;;;5048755;28;20477;-73
2023/05/11 02:38:31;;;;;;;3.20;1.90;;;11.40;99.90;;;;;;5051799;28;20443;-73
2023/05/11 02:41:21;;;;;;;4.20;1.80;;;11.40;99.90;;;;;;5050586;28;20455;-70
2023/05/11 02:44:09;;;;;;;2.50;1.83;;;11.40;99.90;;;;;;5047316;28;20967;-71
2023/05/11 02:46:56;;;;;;;3.40;2.10;;;11.40;99.90;;;;;;5040878;28;20469;-71
2023/05/11 02:49:43;;;;;;;2.53;1.50;;;11.30;99.90;;;;;;5052111;28;20517;-73
2023/05/11 02:52:29;;;;;;;2.20;1.50;;;11.30;99.90;;;;;;5042886;28;20950;-72
2023/05/11 02:55:17;;;;;;;4.30;1.57;;;11.30;99.90;;;;;;5045637;28;20447;-77
2023/05/11 02:58:03;;;;;;;12.83;1.90;;;11.20;99.90;;;;;;5045222;28;20422;-75
2023/05/11 03:00:49;;;;;;;4.07;1.67;;;11.00;99.90;;;;;;5042903;28;20538;-71
2023/05/11 03:03:34;;;;;;;5.93;2.13;;;11.10;99.90;;;;;;5042854;28;20457;-71
2023/05/11 03:06:20;;;;;;;2.30;1.80;;;11.00;99.90;;;;;;5050937;28;20973;-71
2023/05/11 03:09:06;;;;;;;11.53;1.93;;;11.10;99.90;;;;;;5054623;28;20546;-71
2023/05/11 03:11:53;;;;;;;4.73;1.93;;;11.30;99.90;;;;;;5047755;28;20448;-71
2023/05/11 03:14:40;;;;;;;4.47;1.63;;;11.30;99.90;;;;;;5050284;28;20977;-74
2023/05/11 03:17:26;;;;;;;2.67;1.97;;;11.20;99.90;;;;;;5048851;28;20422;-70
2023/05/11 03:20:13;;;;;;;5.07;1.87;;;11.30;99.90;;;;;;5051910;28;20414;-70
2023/05/11 03:23:00;;;;;;;2.50;1.90;;;11.30;99.90;;;;;;5054805;28;21039;-70
2023/05/11 03:25:46;;;;;;;3.20;1.67;;;11.20;99.90;;;;;;5087656;22;20522;-89
2023/05/11 03:28:36;;;;;;;3.70;1.90;;;11.20;99.90;;;;;;5074038;28;20539;-90
2023/05/11 03:31:21;;;;;;;5.07;2.07;;;11.20;99.90;;;;;;5078397;28;20502;-89
2023/05/11 03:34:07;;;;;;;2.00;1.37;;;11.10;99.90;;;;;;5078613;28;20472;-89
2023/05/11 03:36:54;;;;;;;3.50;1.70;;;11.20;99.90;;;;;;5065994;28;20452;-89
2023/05/11 03:39:43;;;;;;;2.47;1.83;;;11.20;99.90;;;;;;5070014;28;20456;-90
2023/05/11 03:42:30;;;;;;;2.80;1.80;;;11.20;99.90;;;;;;5076699;28;20466;-89
2023/05/11 03:45:18;;;;;;;4.37;2.13;;;11.30;99.90;;;;;;5074691;28;20451;-90
2023/05/11 03:48:05;;;;;;;4.07;2.00;;;11.40;99.90;;;;;;5077416;28;20446;-88
2023/05/11 03:50:51;;;;;;;2.50;1.80;;;11.50;99.90;;;;;;5070418;28;20451;-90
2023/05/11 03:53:38;;;;;;;3.00;1.60;;;11.30;99.90;;;;;;5071396;28;20476;-91
2023/05/11 03:56:24;;;;;;;4.73;1.60;;;11.20;99.90;;;;;;5068933;28;20457;-90
2023/05/11 03:59:14;;;;;;;5.43;2.17;;;11.10;99.90;;;;;;5076746;28;20480;-89
2023/05/11 04:02:02;;;;;;;1.93;1.63;;;11.10;99.90;;;;;;5066094;28;21003;-91
2023/05/11 04:04:48;;;;;;;5.10;1.80;;;11.00;99.90;;;;;;5060353;28;20415;-92
2023/05/11 04:07:34;;;;;;;4.47;2.60;;;11.00;99.90;;;;;;5065346;28;20426;-92
2023/05/11 04:10:21;;;;;;;6.10;1.80;;;11.20;99.90;;;;;;5062791;28;20447;-91
2023/05/11 04:13:06;;;;;;;9.93;2.20;;;11.30;99.90;;;;;;5067012;28;20439;-91
2023/05/11 04:15:52;;;;;;;2.13;1.70;;;11.40;99.90;;;;;;5061952;28;20473;-91
2023/05/11 04:18:39;;;;;;;9.00;2.00;;;11.40;99.90;;;;;;5054980;28;20431;-91
2023/05/11 04:21:24;;;;;;;2.37;1.80;;;11.30;99.90;;;;;;5066552;28;20452;-92
2023/05/11 04:24:10;;;;;;;4.13;1.50;;;11.30;99.90;;;;;;5059608;28;20456;-92
2023/05/11 04:26:56;;;;;;;4.70;1.70;;;11.40;99.90;;;;;;5058581;28;20558;-92
2023/05/11 04:29:44;;;;;;;6.30;1.87;;;11.50;99.90;;;;;;5060397;28;20423;-91
2023/05/11 04:32:30;;;;;;;4.60;1.47;;;11.50;99.90;;;;;;5063253;28;20448;-91
2023/05/11 04:35:17;;;;;;;8.90;1.70;;;11.60;99.90;;;;;;5054077;28;20478;-92
2023/05/11 04:38:02;;;;;;;2.53;1.50;;;11.50;99.90;;;;;;5075856;28;20466;-92
2023/05/11 04:40:49;;;;;;;7.37;2.07;;;11.40;99.90;;;;;;5061160;28;20460;-92
2023/05/11 04:43:35;;;;;;;5.20;2.07;;;11.50;99.90;;;;;;5076523;28;20423;-92
2023/05/11 04:46:22;;;;;;;6.50;1.90;;;11.60;99.90;;;;;;5059549;28;20522;-93
2023/05/11 04:49:07;;;;;;;2.83;2.13;;;11.50;99.90;;;;;;5067056;28;20509;-92
2023/05/11 04:51:55;;;;;;;6.33;2.00;;;11.40;99.90;;;;;;5062911;28;20440;-92
2023/05/11 04:54:41;;;;;;;4.23;2.37;;;11.40;99.90;;;;;;5062645;28;20822;-92
2023/05/11 04:57:26;;;;;;;4.90;2.17;;;11.30;99.90;;;;;;5060267;28;20499;-91
2023/05/11 05:00:12;;;;;;;3.17;2.00;;;11.30;99.90;;;;;;5062485;28;20452;-92
2023/05/11 05:02:58;;;;;;;10.17;2.33;;;11.40;99.90;;;;;;5060407;28;20439;-93
2023/05/11 05:05:44;;;;;;;2.13;1.70;;;11.60;99.90;;;;;;5055045;28;20603;-92
2023/05/11 05:08:31;;;;;;;2.33;1.90;;;11.60;99.90;;;;;;5063944;28;20464;-91
2023/05/11 05:11:16;;;;;;;3.70;2.17;;;11.70;99.90;;;;;;5057432;28;20452;-91
2023/05/11 05:14:02;;;;;;;3.13;1.80;;;11.80;99.90;;;;;;5054437;28;20971;-92
2023/05/11 05:16:48;;;;;;;2.53;1.60;;;11.80;99.90;;;;;;5055123;28;20495;-93
2023/05/11 05:19:33;;;;;;;2.73;1.50;;;11.90;99.90;;;;;;5058322;28;20436;-92
2023/05/11 05:22:19;;;;;;;3.30;2.27;;;11.90;99.90;;;;;;5061111;28;20484;-92
2023/05/11 05:25:07;;;;;;;6.00;2.07;;;12.00;99.90;;;;;;5057202;28;20821;-93
2023/05/11 05:27:53;;;;;;;4.53;2.20;;;12.00;99.90;;;;;;5057793;28;20458;-91
2023/05/11 05:30:38;;;;;;;3.20;2.47;;;12.00;99.90;;;;;;5066125;28;20445;-92
2023/05/11 05:33:24;;;;;;;4.87;2.60;;;12.10;99.90;;;;;;5059274;28;20401;-92
2023/05/11 05:36:10;;;;;;;3.90;2.20;;;12.00;99.90;;;;;;5055369;28;20438;-92
2023/05/11 05:38:55;;;;;;;4.37;2.23;;;12.00;99.90;;;;;;5063590;28;20419;-91
2023/05/11 05:41:43;;;;;;;3.37;2.23;;;12.10;99.90;;;;;;5062848;28;20501;-92
2023/05/11 05:44:29;;;;;;;4.37;2.77;;;12.20;99.90;;;;;;5051255;28;20496;-92
2023/05/11 05:47:15;;;;;;;7.73;3.20;;;12.20;99.90;;;;;;5061119;28;20417;-92
2023/05/11 05:50:00;;;;;;;2.67;2.13;;;12.30;99.90;;;;;;5062510;28;20453;-92
2023/05/11 05:52:46;;;;;;;5.67;2.20;;;12.40;99.90;;;;;;5062187;28;20404;-92
2023/05/11 05:55:31;;;;;;;3.97;2.00;;;12.40;99.90;;;;;;5060983;28;20438;-93
2023/05/11 05:58:18;;;;;;;6.23;2.10;;;12.40;99.90;;;;;;5061021;28;20443;-91
2023/05/11 06:01:06;;;;;;;5.03;2.20;;;12.50;99.90;;;;;;5072405;28;20439;-93
2023/05/11 06:03:52;;;;;;;5.53;2.30;;;12.50;99.90;;;;;;5069230;28;20400;-94
2023/05/11 06:06:38;;;;;;;7.53;2.07;;;12.60;99.90;;;;;;5060708;28;20446;-90
2023/05/11 06:09:23;;;;;;;10.80;2.00;;;12.50;99.90;;;;;;5055604;28;20504;-91
2023/05/11 06:12:09;;;;;;;4.87;2.43;;;12.60;99.90;;;;;;5051686;28;20456;-90
2023/05/11 06:14:56;;;;;;;4.70;2.50;;;12.70;99.90;;;;;;5054695;28;20454;-90
2023/05/11 06:17:41;;;;;;;7.90;2.60;;;12.70;99.90;;;;;;5050463;28;20447;-90
2023/05/11 06:20:27;;;;;;;4.87;2.87;;;12.70;99.90;;;;;;5051549;28;20442;-90
2023/05/11 06:23:13;;;;;;;9.20;3.37;;;12.70;99.90;;;;;;5049564;28;20472;-91
2023/05/11 06:25:58;;;;;;;6.47;3.83;;;12.80;99.90;;;;;;5049307;28;20460;-92
2023/05/11 06:28:44;;;;;;;9.13;4.77;;;12.80;99.90;;;;;;5052135;28;20549;-90
2023/05/11 06:31:31;;;;;;;9.50;5.50;;;12.90;99.90;;;;;;5045791;28;20453;-91
2023/05/11 06:34:16;;;;;;;7.10;5.87;;;12.90;99.90;;;;;;5044265;28;20527;-91
2023/05/11 06:37:02;;;;;;;8.13;6.83;;;13.00;99.90;;;;;;5053679;28;20447;-92
2023/05/11 06:39:48;;;;;;;8.73;7.20;;;12.80;99.90;;;;;;5047167;28;20453;-91
2023/05/11 06:42:33;;;;;;;10.47;6.80;;;12.80;99.90;;;;;;5053101;28;21112;-92
2023/05/11 06:45:19;;;;;;;7.77;7.00;;;12.80;99.90;;;;;;5053481;28;20439;-92
2023/05/11 06:48:06;;;;;;;8.43;6.73;;;12.70;99.90;;;;;;5057757;28;20453;-90
2023/05/11 06:50:52;;;;;;;7.77;6.43;;;12.80;99.90;;;;;;5059716;28;20412;-91
2023/05/11 06:53:37;;;;;;;8.10;6.10;;;12.80;99.90;;;;;;5047836;28;20448;-92
2023/05/11 06:56:23;;;;;;;7.03;6.33;;;12.90;99.90;;;;;;5051423;28;20501;-91
2023/05/11 06:59:08;;;;;;;5.80;5.30;;;12.90;99.90;;;;;;5052267;28;20396;-92
2023/05/11 07:01:54;;;;;;;8.33;5.00;;;12.80;99.90;;;;;;5055257;28;20529;-92
2023/05/11 07:04:41;;;;;;;8.30;5.53;;;12.60;99.90;;;;;;5049576;28;20420;-92
2023/05/11 07:07:27;;;;;;;7.50;4.90;;;12.60;99.90;;;;;;5049701;28;21037;-92
2023/05/11 07:10:12;;;;;;;10.23;5.20;;;12.70;99.90;;;;;;5056882;28;20518;-90
2023/05/11 07:12:58;;;;;;;7.17;4.67;;;12.80;99.90;;;;;;5055115;28;20436;-92
2023/05/11 07:15:44;;;;;;;6.30;4.63;;;12.70;99.90;;;;;;5064203;28;20518;-93
2023/05/11 07:18:30;;;;;;;10.13;5.67;;;12.80;99.90;;;;;;5059578;28;20426;-92
2023/05/11 07:21:17;;;;;;;5.60;4.33;;;12.70;99.90;;;;;;5065746;28;20419;-91
2023/05/11 07:24:02;;;;;;;11.10;6.30;;;12.80;99.90;;;;;;5057645;28;20404;-92
2023/05/11 07:26:48;;;;;;;5.97;5.10;;;12.90;99.90;;;;;;5049472;28;20507;-92
2023/05/11 07:29:34;;;;;;;7.27;4.90;;;13.00;99.90;;;;;;5048700;28;20397;-92
2023/05/11 07:32:19;;;;;;;7.10;4.60;;;13.00;99.90;;;;;;5053669;28;20849;-91
2023/05/11 07:35:06;;;;;;;5.87;5.13;;;13.20;99.90;;;;;;5060922;28;20432;-92
2023/05/11 07:37:53;;;;;;;6.07;4.70;;;13.20;99.90;;;;;;5048234;28;20993;-91
2023/05/11 07:40:39;;;;;;;5.73;5.13;;;13.30;99.90;;;;;;5057653;28;20403;-91
2023/05/11 07:43:25;;;;;;;6.63;4.67;;;13.30;99.90;;;;;;5057222;28;20540;-91
2023/05/11 07:46:11;;;;;;;7.37;5.13;;;13.40;99.90;;;;;;5056880;28;20511;-92
2023/05/11 07:48:56;;;;;;;7.60;4.57;;;13.50;99.90;;;;;;5052469;28;20422;-91
2023/05/11 07:51:43;;;;;;;4.87;4.37;;;13.50;99.90;;;;;;5063181;28;20395;-91
2023/05/11 07:54:29;;;;;;;5.83;4.90;;;13.60;99.90;;;;;;5050816;28;20421;-91
2023/05/11 07:57:15;;;;;;;10.27;4.53;;;13.60;99.90;;;;;;5062801;22;20706;-71
2023/05/11 08:00:00;;;;;;;8.17;4.17;;;13.60;99.90;;;;;;5058992;28;20408;-71
2023/05/11 08:02:46;;;;;;;7.40;6.00;;;13.50;99.90;;;;;;5041712;28;20560;-71
2023/05/11 08:05:36;;;;;;;6.93;4.00;;;13.50;99.90;;;;;;5056539;28;20449;-71
2023/05/11 08:08:21;;;;;;;5.97;4.33;;;13.50;99.90;;;;;;5058081;28;20480;-71
2023/05/11 08:11:09;;;;;;;6.23;4.83;;;13.50;99.90;;;;;;5057281;28;20488;-71
2023/05/11 08:13:54;;;;;;;7.50;4.30;;;13.50;99.90;;;;;;5051743;28;20419;-71
2023/05/11 08:16:39;;;;;;;5.37;4.37;;;13.50;99.90;;;;;;5056468;28;20532;-71
2023/05/11 08:19:25;;;;;;;5.47;4.50;;;13.40;99.90;;;;;;5046340;28;20437;-71
2023/05/11 08:22:12;;;;;;;8.37;4.43;;;13.40;99.90;;;;;;5046652;28;20480;-71
2023/05/11 08:24:57;;;;;;;6.17;4.13;;;13.50;99.90;;;;;;5051229;28;20454;-71
2023/05/11 08:27:44;;;;;;;7.33;4.67;;;13.60;99.90;;;;;;5053716;28;20926;-71
2023/05/11 08:30:30;;;;;;;7.20;4.97;;;13.60;99.90;;;;;;5056487;28;20430;-71
2023/05/11 08:33:15;;;;;;;4.70;4.20;;;13.70;99.90;;;;;;5047389;28;20444;-71
2023/05/11 08:36:01;;;;;;;4.40;3.57;;;13.80;99.90;;;;;;5054183;28;20444;-71
2023/05/11 08:38:46;;;;;;;4.53;3.97;;;13.90;99.90;;;;;;5049998;28;20428;-71
2023/05/11 08:41:32;;;;;;;5.37;4.00;;;13.80;99.90;;;;;;5046119;28;20428;-72
2023/05/11 08:44:20;;;;;;;6.43;4.43;;;13.80;99.90;;;;;;5048182;28;20488;-72
2023/05/11 08:47:06;;;;;;;4.67;4.10;;;13.80;99.90;;;;;;5056240;28;20449;-72
2023/05/11 08:49:52;;;;;;;6.27;3.90;;;13.90;99.90;;;;;;5055015;28;20423;-72
2023/05/11 08:52:37;;;;;;;6.20;4.50;;;13.80;99.90;;;;;;5047672;28;20540;-72
2023/05/11 08:55:25;;;;;;;4.83;4.20;;;13.90;99.90;;;;;;5054665;28;20466;-72
2023/05/11 08:58:13;;;;;;;6.53;4.43;;;13.90;99.90;;;;;;5057112;28;20887;-72
2023/05/11 09:01:00;;;;;;;5.30;4.17;;;13.80;99.90;;;;;;5057302;28;20925;-72
2023/05/11 09:03:47;;;;;;;11.40;4.73;;;13.80;99.90;;;;;;5048087;28;20466;-72
2023/05/11 09:06:33;;;;;;;5.47;3.97;;;13.90;99.90;;;;;;5050984;28;20445;-72
2023/05/11 09:09:19;;;;;;;9.83;4.77;;;14.10;99.90;;;;;;5048009;28;20447;-72
2023/05/11 09:12:06;;;;;;;5.83;4.57;;;14.10;99.90;;;;;;5051427;28;20824;-72
2023/05/11 09:14:51;;;;;;;8.53;5.73;;;14.00;99.90;;;;;;5046274;28;20457;-72
2023/05/11 09:17:38;;;;;;;5.83;5.17;;;14.10;99.90;;;;;;5054403;28;20474;-72
2023/05/11 09:20:27;;;;;;;6.70;5.00;;;13.90;99.90;;;;;;5052941;28;20457;-71
2023/05/11 09:23:16;;;;;;;10.97;5.50;;;13.80;99.90;;;;;;5048296;28;20518;-72
2023/05/11 09:26:01;;;;;;;7.27;4.70;;;13.90;99.90;;;;;;5075577;23;20551;-73
2023/05/11 09:28:51;;;;;;;6.30;4.80;;;13.80;99.90;;;;;;5071253;28;21101;-73
2023/05/11 09:31:38;;;;;;;8.47;5.43;;;13.80;99.90;;;;;;5062336;28;20452;-73
2023/05/11 09:34:25;;;;;;;7.57;4.90;;;13.90;99.90;;;;;;5062954;28;20441;-71
2023/05/11 09:37:17;;;;;;;5.30;4.50;;;14.00;99.90;;;;;;5070074;28;20468;-73
2023/05/11 09:40:02;;;;;;;8.20;5.20;;;14.10;99.90;;;;;;5073647;28;20449;-72
2023/05/11 09:42:47;;;;;;;7.03;5.50;;;14.10;99.90;;;;;;5065325;28;20551;-73
2023/05/11 09:45:41;;;;;;;7.03;4.73;;;14.10;99.90;;;;;;5071893;28;20464;-73
2023/05/11 09:48:30;;;;;;;6.70;6.00;;;14.10;99.90;;;;;;5069219;28;20511;-73
2023/05/11 09:51:29;;;;;;;5.37;4.87;;;14.10;99.90;;;;;;5066859;28;20423;-74
2023/05/11 09:54:19;;;;;;;9.20;6.13;;;14.00;99.90;;;;;;5074432;28;20419;-72
2023/05/11 09:57:07;;;;;;;7.13;5.90;;;14.00;99.90;;;;;;5074555;28;20457;-74
2023/05/11 09:59:52;;;;;;;8.00;6.93;;;14.10;99.90;;;;;;5069032;28;20796;-74
2023/05/11 10:02:38;;;;;;;10.50;5.63;;;14.00;99.90;;;;;;5066278;28;20806;-74
2023/05/11 10:05:24;;;;;;;13.53;6.87;;;14.00;99.90;;;;;;5067399;28;20469;-74
2023/05/11 10:08:11;;;;;;;9.10;6.03;;;14.10;99.90;;;;;;5066880;28;20441;-74
2023/05/11 10:10:57;;;;;;;8.53;5.70;;;14.10;99.90;;;;;;5067291;28;20446;-72
2023/05/11 10:13:43;;;;;;;8.80;6.40;;;14.20;99.90;;;;;;5074046;28;20500;-74
2023/05/11 10:16:30;;;;;;;9.37;6.07;;;14.20;99.90;;;;;;5073211;28;20442;-74
2023/05/11 10:19:16;;;;;;;8.20;6.10;;;14.30;99.90;;;;;;5066024;28;20431;-74
2023/05/11 10:22:02;;;;;;;7.73;5.87;;;14.30;99.90;;;;;;5063420;28;20451;-73
2023/05/11 10:24:50;;;;;;;7.67;6.17;;;14.40;99.90;;;;;;5060510;28;20538;-74
2023/05/11 10:27:37;;;;;;;7.53;5.27;;;14.40;99.90;;;;;;5068414;28;20416;-71
2023/05/11 10:30:23;;;;;;;8.37;5.20;;;14.50;99.90;;;;;;5063353;28;21686;-68
2023/05/11 10:33:10;;;;;;;8.53;6.00;;;14.60;99.90;;;;;;5061757;28;20410;-75
2023/05/11 10:35:56;;;;;;;7.10;5.57;;;14.50;99.90;;;;;;5065059;28;20812;-75
2023/05/11 10:38:41;;;;;;;6.53;5.83;;;14.60;99.90;;;;;;5061581;28;20439;-74
2023/05/11 10:41:44;;;;;;;10.73;7.07;;;14.60;99.90;;;;;;5060376;28;20973;-73
2023/05/11 10:44:59;;;;;;;7.77;5.50;;;14.60;99.90;;;;;;5063578;28;20524;-73
2023/05/11 10:48:24;;;;;;;7.00;5.97;;;14.70;99.90;;;;;;5067022;28;20912;-75
2023/05/11 10:52:00;;;;;;;6.23;5.47;;;14.70;99.90;;;;;;5064008;28;20481;-74
2023/05/11 10:54:55;;;;;;;7.63;5.23;;;14.90;99.90;;;;;;5021310;28;21117;-75
2023/05/11 10:58:07;;;;;;;6.27;5.57;;;15.00;99.90;;;;;;5072952;28;20809;-74
2023/05/11 11:01:26;;;;;;;6.30;5.10;;;15.10;99.90;;;;;;5062063;28;20420;-72
2023/05/11 11:04:13;;;;;;;8.67;5.20;;;15.20;99.90;;;;;;5041119;28;20564;-74
2023/05/11 11:07:07;;;;;;;6.10;5.10;;;15.30;99.90;;;;;;5074998;28;20470;-75
2023/05/11 11:09:56;;;;;;;6.40;4.67;;;15.40;99.90;;;;;;5061417;28;20461;-73
2023/05/11 11:13:03;;;;;;;5.77;4.80;;;15.40;99.90;;;;;;5067826;28;20497;-74
2023/05/11 11:16:13;;;;;;;7.87;4.80;;;15.50;99.90;;;;;;5070458;28;20537;-74
2023/05/11 11:19:36;;;;;;;4.77;4.20;;;15.50;99.90;;;;;;5072904;28;20494;-74
2023/05/11 11:22:45;;;;;;;5.40;3.50;;;15.40;99.90;;;;;;5070270;28;20547;-72
2023/05/11 11:25:52;;;;;;;6.27;4.20;;;15.30;99.90;;;;;;5069165;28;20473;-74
2023/05/11 11:29:13;;;;;;;4.63;4.10;;;15.40;99.90;;;;;;5072308;28;20437;-72
2023/05/11 11:32:25;;;;;;;5.40;4.07;;;15.40;99.90;;;;;;5071248;28;20459;-74
2023/05/11 11:35:44;;;;;;;4.70;3.70;;;15.50;99.90;;;;;;5076476;28;20503;-74
2023/05/11 11:38:32;;;;;;;7.53;4.70;;;15.60;99.90;;;;;;5074567;28;20566;-74
2023/05/11 11:41:28;;;;;;;5.30;4.50;;;15.60;99.90;;;;;;5074511;28;20507;-74
2023/05/11 11:44:24;;;;;;;7.67;5.03;;;15.40;99.90;;;;;;5079657;28;20968;-74
2023/05/11 11:47:13;;;;;;;4.07;3.67;;;15.50;99.90;;;;;;5071917;28;20799;-74
2023/05/11 11:50:12;;;;;;;6.37;3.97;;;15.60;99.90;;;;;;5070778;28;20599;-74
2023/05/11 11:52:57;;;;;;;4.83;3.67;;;15.40;99.90;;;;;;5065950;28;20786;-73
2023/05/11 11:55:50;;;;;;;8.40;4.67;;;15.50;99.90;;;;;;5075567;28;20875;-74
2023/05/11 11:58:57;;;;;;;7.43;5.07;;;15.60;99.90;;;;;;5071185;28;20861;-74
2023/05/11 12:01:45;;;;;;;6.63;4.53;;;15.60;99.90;;;;;;5073102;28;20893;-74
2023/05/11 12:04:50;;;;;;;9.00;6.90;;;15.60;99.90;;;;;;5066614;28;20657;-74
2023/05/11 12:07:37;;;;;;;7.40;4.13;;;15.60;99.90;;;;;;5071835;28;20450;-73
2023/05/11 12:10:23;;;;;;;7.17;4.97;;;15.70;99.90;;;;;;5072166;28;20525;-74
2023/05/11 12:13:10;;;;;;;6.83;4.10;;;15.80;99.90;;;;;;5077531;28;20430;-72
2023/05/11 12:16:08;;;;;;;12.97;5.77;;;15.70;99.90;;;;;;5063217;28;20478;-74
2023/05/11 12:18:56;;;;;;;8.43;6.00;;;15.70;99.90;;;;;;5068458;28;20798;-74
2023/05/11 12:21:45;;;;;;;7.20;6.07;;;15.60;99.90;;;;;;5073623;28;20965;-72
2023/05/11 12:24:30;;;;;;;5.67;5.10;;;15.70;99.90;;;;;;5064300;28;20478;-74
2023/05/11 12:27:17;;;;;;;9.67;6.27;;;15.80;99.90;;;;;;5072051;28;20538;-74
2023/05/11 12:30:02;;;;;;;5.90;5.30;;;15.80;99.90;;;;;;5071207;28;20428;-74
2023/05/11 12:32:48;;;;;;;6.03;5.43;;;15.90;99.90;;;;;;5071448;28;20920;-74
2023/05/11 12:35:35;;;;;;;10.00;7.27;;;16.00;99.90;;;;;;5069792;28;20435;-74
2023/05/11 12:38:20;;;;;;;9.40;7.33;;;16.00;99.90;;;;;;5070342;28;20441;-72
2023/05/11 12:41:07;;;;;;;7.60;6.80;;;16.10;99.90;;;;;;5070477;28;20932;-74
2023/05/11 12:43:54;;;;;;;8.83;7.43;;;16.00;99.90;;;;;;5069770;28;20450;-74
2023/05/11 12:46:39;;;;;;;8.53;7.73;;;16.00;99.90;;;;;;5064778;28;20436;-74
2023/05/11 12:49:26;;;;;;;12.50;6.93;;;15.80;99.90;;;;;;5067502;28;20466;-74
2023/05/11 12:52:13;;;;;;;11.67;7.90;;;15.90;99.90;;;;;;5075205;28;20859;-74
2023/05/11 12:54:59;;;;;;;8.60;7.67;;;15.90;99.90;;;;;;5072447;28;21120;-74
2023/05/11 12:57:45;;;;;;;17.73;9.33;;;16.00;99.90;;;;;;5072704;28;20404;-73
2023/05/11 13:00:30;;;;;;;9.60;8.47;;;16.10;99.90;;;;;;5068332;28;20437;-74
2023/05/11 13:03:21;;;;;;;20.87;9.07;;;16.20;99.90;;;;;;5080714;28;20418;-75
2023/05/11 13:06:07;;;;;;;10.40;9.33;;;16.20;99.90;;;;;;5069976;28;20456;-74
2023/05/11 13:08:54;;;;;;;9.63;8.40;;;16.20;99.90;;;;;;5079165;28;20950;-74
2023/05/11 13:11:40;;;;;;;15.00;7.43;;;16.30;99.90;;;;;;5069071;28;20446;-74
2023/05/11 13:14:25;;;;;;;8.77;7.77;;;16.30;99.90;;;;;;5071482;28;21268;-74
2023/05/11 13:17:11;;;;;;;10.83;7.70;;;16.30;99.90;;;;;;5070922;28;20448;-74
2023/05/11 13:19:56;;;;;;;9.70;8.80;;;16.30;99.90;;;;;;5076989;28;20781;-74
2023/05/11 13:22:42;;;;;;;9.63;8.33;;;16.40;99.90;;;;;;5063754;28;20440;-72
2023/05/11 13:25:29;;;;;;;10.23;8.70;;;16.40;99.90;;;;;;5060845;28;20528;-73
2023/05/11 13:28:16;;;;;;;10.43;9.33;;;16.40;99.90;;;;;;5065673;28;20453;-70
2023/05/11 13:31:01;;;;;;;9.90;8.47;;;16.40;99.90;;;;;;5064989;28;20484;-73
2023/05/11 13:33:49;;;;;;;10.10;9.10;;;16.30;99.90;;;;;;5066077;28;20432;-73
2023/05/11 13:36:35;;;;;;;11.30;9.60;;;16.30;99.90;;;;;;5062113;28;20445;-74
2023/05/11 13:39:21;;;;;;;9.57;8.70;;;16.30;99.90;;;;;;5070489;28;20416;-72
2023/05/11 13:42:07;;;;;;;8.63;7.37;;;16.30;99.90;;;;;;5067304;28;20579;-73
2023/05/11 13:44:53;;;;;;;10.03;9.03;;;16.30;99.90;;;;;;5061670;28;20622;-72
2023/05/11 13:47:39;;;;;;;10.33;8.90;;;16.30;99.90;;;;;;5064042;28;20554;-74
2023/05/11 13:50:25;;;;;;;11.50;8.37;;;16.30;99.90;;;;;;5068632;28;20457;-71
2023/05/11 13:53:11;;;;;;;8.77;7.80;;;16.40;99.90;;;;;;5065691;28;20478;-74
2023/05/11 13:55:56;;;;;;;12.67;8.53;;;16.40;99.90;;;;;;5060488;28;20554;-73
2023/05/11 13:58:43;;;;;;;8.90;8.00;;;16.40;99.90;;;;;;5071387;28;20419;-74
2023/05/11 14:01:29;;;;;;;10.30;8.47;;;16.40;99.90;;;;;;5063751;28;20431;-73
2023/05/11 14:04:14;;;;;;;10.10;8.20;;;16.40;99.90;;;;;;5062764;28;20550;-70
2023/05/11 14:07:00;;;;;;;13.50;8.87;;;16.40;99.90;;;;;;5064687;28;20544;-74
2023/05/11 14:09:47;;;;;;;14.83;8.53;;;16.40;99.90;;;;;;5064203;28;20445;-74
2023/05/11 14:12:32;;;;;;;11.30;8.80;;;16.40;99.90;;;;;;5064093;28;20546;-70
2023/05/11 14:15:19;;;;;;;12.17;8.57;;;16.40;99.90;;;;;;5060110;28;21171;-74
2023/05/11 14:18:06;;;;;;;15.77;8.60;;;16.40;99.90;;;;;;5066451;28;21023;-74
2023/05/11 14:20:51;;;;;;;9.30;8.30;;;16.40;99.90;;;;;;5059773;28;20449;-73
2023/05/11 14:23:37;;;;;;;9.43;8.50;;;16.40;99.90;;;;;;5055731;28;20425;-74
2023/05/11 14:26:23;;;;;;;13.63;8.80;;;16.40;99.90;;;;;;5071849;28;21057;-74
2023/05/11 14:29:08;;;;;;;8.93;7.67;;;16.40;99.90;;;;;;5073028;28;20491;-74
2023/05/11 14:31:55;;;;;;;10.10;7.77;;;16.40;99.90;;;;;;5078720;28;21063;-75
2023/05/11 14:34:41;;;;;;;7.60;6.57;;;16.40;99.90;;;;;;5065705;28;21017;-74